sensor_id;sensor_type;location;lat;lon;timestamp;pressure;altitude;pressure_sealevel;temperature
8533;BMP280;4304;53.876;10.662;2022-10-31T00:00:29;115216.22;;;-139.81
8533;BMP280;4304;53.876;10.662;2022-10-31T00:02:54;115216.22;;;-139.81
8533;BMP280;4304;53.876;10.662;2022-10-31T00:05:19;115216.22;;;-139.81
8533;BMP280;4304;53.876;10.662;2022-10-31T00:07:44;115216.22;;;-139.81
8533;BMP280;4304;53.876;10.662;2022-10-31T00:10:09;114956.66;;;-139.81
8533;BMP280;4304;53.876;10.662;2022-10-31T00:12:35;114956.66;;;-139.81
8533;BMP280;4304;53.876;10.662;2022-10-31T00:15:00;114956.66;;;-139.81
8533;BMP280;4304;53.876;10.662;2022-10-31T00:17:25;114956.66;;;-139.81
8533;BMP280;4304;53.876;10.662;2022-10-31T00:19:50;114956.66;;;-139.81
8533;BMP280;4304;53.876;10.662;2022-10-31T00:22:16;114956.66;;;-139.81
8533;BMP280;4304;53.876;10.662;2022-10-31T00:24:41;114956.66;;;-139.81
8533;BMP280;4304;53.876;10.662;2022-10-31T00:27:06;114956.66;;;-139.81
8533;BMP280;4304;53.876;10.662;2022-10-31T00:29:31;114956.66;;;-139.81
8533;BMP280;4304;53.876;10.662;2022-10-31T00:31:56;114956.66;;;-139.81
8533;BMP280;4304;53.876;10.662;2022-10-31T00:34:22;114956.66;;;-139.81
8533;BMP280;4304;53.876;10.662;2022-10-31T00:36:47;114956.66;;;-139.81
8533;BMP280;4304;53.876;10.662;2022-10-31T00:39:12;114956.66;;;-139.81
8533;BMP280;4304;53.876;10.662;2022-10-31T00:41:37;114956.66;;;-139.81
8533;BMP280;4304;53.876;10.662;2022-10-31T00:44:02;114956.66;;;-139.81
8533;BMP280;4304;53.876;10.662;2022-10-31T00:46:28;114956.66;;;-139.81
8533;BMP280;4304;53.876;10.662;2022-10-31T00:48:53;114956.66;;;-139.81
8533;BMP280;4304;53.876;10.662;2022-10-31T00:51:18;114956.66;;;-139.81
8533;BMP280;4304;53.876;10.662;2022-10-31T00:53:44;115216.22;;;-139.81
8533;BMP280;4304;53.876;10.662;2022-10-31T00:56:09;114956.66;;;-139.81
8533;BMP280;4304;53.876;10.662;2022-10-31T00:58:34;114956.66;;;-139.81
8533;BMP280;4304;53.876;10.662;2022-10-31T01:01:00;114956.66;;;-139.81
8533;BMP280;4304;53.876;10.662;2022-10-31T01:03:28;114956.66;;;-139.81
8533;BMP280;4304;53.876;10.662;2022-10-31T01:06:00;115216.22;;;-139.81
8533;BMP280;4304;53.876;10.662;2022-10-31T01:08:26;114956.66;;;-139.81
8533;BMP280;4304;53.876;10.662;2022-10-31T01:11:04;114956.66;;;-139.81
8533;BMP280;4304;53.876;10.662;2022-10-31T01:13:30;114956.66;;;-139.81
8533;BMP280;4304;53.876;10.662;2022-10-31T01:15:59;114956.66;;;-139.81
8533;BMP280;4304;53.876;10.662;2022-10-31T01:18:26;114956.66;;;-139.81
8533;BMP280;4304;53.876;10.662;2022-10-31T01:21:06;114956.66;;;-139.81
8533;BMP280;4304;53.876;10.662;2022-10-31T01:23:32;114956.66;;;-139.81
8533;BMP280;4304;53.876;10.662;2022-10-31T01:28:36;114956.66;;;-139.81
8533;BMP280;4304;53.876;10.662;2022-10-31T01:31:04;114956.66;;;-139.81
8533;BMP280;4304;53.876;10.662;2022-10-31T01:33:30;114956.66;;;-139.81
8533;BMP280;4304;53.876;10.662;2022-10-31T01:35:55;114956.66;;;-139.81
8533;BMP280;4304;53.876;10.662;2022-10-31T01:38:20;114956.66;;;-139.81
8533;BMP280;4304;53.876;10.662;2022-10-31T01:40:45;114956.66;;;-139.81
8533;BMP280;4304;53.876;10.662;2022-10-31T01:43:13;114956.66;;;-139.81
8533;BMP280;4304;53.876;10.662;2022-10-31T01:45:41;114956.66;;;-139.81
8533;BMP280;4304;53.876;10.662;2022-10-31T01:48:14;114956.66;;;-139.81
8533;BMP280;4304;53.876;10.662;2022-10-31T01:50:40;114956.66;;;-139.81
8533;BMP280;4304;53.876;10.662;2022-10-31T01:53:09;114956.66;;;-139.81
8533;BMP280;4304;53.876;10.662;2022-10-31T01:55:39;114956.66;;;-139.81
8533;BMP280;4304;53.876;10.662;2022-10-31T01:58:13;114956.66;;;-139.81
8533;BMP280;4304;53.876;10.662;2022-10-31T02:00:42;114956.66;;;-139.81
8533;BMP280;4304;53.876;10.662;2022-10-31T02:03:08;114956.66;;;-139.81
8533;BMP280;4304;53.876;10.662;2022-10-31T02:05:34;114956.66;;;-139.81
8533;BMP280;4304;53.876;10.662;2022-10-31T02:08:14;114956.66;;;-139.81
8533;BMP280;4304;53.876;10.662;2022-10-31T02:10:42;114956.66;;;-139.81
8533;BMP280;4304;53.876;10.662;2022-10-31T02:13:08;114956.66;;;-139.81
8533;BMP280;4304;53.876;10.662;2022-10-31T02:15:35;114956.66;;;-139.81
8533;BMP280;4304;53.876;10.662;2022-10-31T02:18:03;114956.66;;;-139.81
8533;BMP280;4304;53.876;10.662;2022-10-31T02:20:38;114956.66;;;-139.81
8533;BMP280;4304;53.876;10.662;2022-10-31T02:23:37;114956.66;;;-139.81
8533;BMP280;4304;53.876;10.662;2022-10-31T02:31:46;114956.66;;;-139.81
8533;BMP280;4304;53.876;10.662;2022-10-31T02:34:32;114956.66;;;-139.81
8533;BMP280;4304;53.876;10.662;2022-10-31T02:37:11;114956.66;;;-139.81
8533;BMP280;4304;53.876;10.662;2022-10-31T02:42:14;114956.66;;;-139.81
8533;BMP280;4304;53.876;10.662;2022-10-31T02:44:49;114956.66;;;-139.81
8533;BMP280;4304;53.876;10.662;2022-10-31T02:47:23;114956.66;;;-139.81
8533;BMP280;4304;53.876;10.662;2022-10-31T02:49:57;114956.66;;;-139.81
8533;BMP280;4304;53.876;10.662;2022-10-31T02:52:25;114956.66;;;-139.81
8533;BMP280;4304;53.876;10.662;2022-10-31T02:54:52;114956.66;;;-139.81
8533;BMP280;4304;53.876;10.662;2022-10-31T02:57:20;115216.22;;;-139.81
8533;BMP280;4304;53.876;10.662;2022-10-31T02:59:53;115216.22;;;-139.81
8533;BMP280;4304;53.876;10.662;2022-10-31T03:11:05;115216.22;;;-139.81
8533;BMP280;4304;53.876;10.662;2022-10-31T03:13:50;115216.22;;;-139.81
8533;BMP280;4304;53.876;10.662;2022-10-31T03:16:25;115216.22;;;-139.81
8533;BMP280;4304;53.876;10.662;2022-10-31T03:19:08;115216.22;;;-139.81
8533;BMP280;4304;53.876;10.662;2022-10-31T03:21:41;115216.22;;;-139.81
8533;BMP280;4304;53.876;10.662;2022-10-31T03:24:09;115216.22;;;-139.81
8533;BMP280;4304;53.876;10.662;2022-10-31T03:26:37;115475.81;;;-139.81
8533;BMP280;4304;53.876;10.662;2022-10-31T03:29:07;115475.81;;;-139.81
8533;BMP280;4304;53.876;10.662;2022-10-31T03:31:39;115475.81;;;-139.81
8533;BMP280;4304;53.876;10.662;2022-10-31T03:34:07;115475.81;;;-139.81
8533;BMP280;4304;53.876;10.662;2022-10-31T03:36:34;115475.81;;;-139.81
8533;BMP280;4304;53.876;10.662;2022-10-31T03:39:02;115735.44;;;-139.81
8533;BMP280;4304;53.876;10.662;2022-10-31T03:41:32;115735.44;;;-139.81
8533;BMP280;4304;53.876;10.662;2022-10-31T03:44:06;115735.44;;;-139.81
8533;BMP280;4304;53.876;10.662;2022-10-31T03:46:33;115735.44;;;-139.81
8533;BMP280;4304;53.876;10.662;2022-10-31T03:48:59;115735.44;;;-139.81
8533;BMP280;4304;53.876;10.662;2022-10-31T03:51:54;115995.09;;;-139.81
8533;BMP280;4304;53.876;10.662;2022-10-31T03:54:43;115995.09;;;-139.81
8533;BMP280;4304;53.876;10.662;2022-10-31T03:57:29;115995.09;;;-139.81
8533;BMP280;4304;53.876;10.662;2022-10-31T04:00:02;115995.09;;;-139.81
8533;BMP280;4304;53.876;10.662;2022-10-31T04:02:30;115995.09;;;-139.81
8533;BMP280;4304;53.876;10.662;2022-10-31T04:04:57;115995.09;;;-139.81
8533;BMP280;4304;53.876;10.662;2022-10-31T04:07:25;115995.09;;;-139.81
8533;BMP280;4304;53.876;10.662;2022-10-31T04:09:52;115995.09;;;-139.81
8533;BMP280;4304;53.876;10.662;2022-10-31T04:12:19;115995.09;;;-139.81
8533;BMP280;4304;53.876;10.662;2022-10-31T04:14:47;115995.09;;;-139.81
8533;BMP280;4304;53.876;10.662;2022-10-31T04:17:15;115995.09;;;-139.81
8533;BMP280;4304;53.876;10.662;2022-10-31T04:19:41;116254.75;;;-139.81
8533;BMP280;4304;53.876;10.662;2022-10-31T04:22:07;116254.75;;;-139.81
8533;BMP280;4304;53.876;10.662;2022-10-31T04:24:32;116254.75;;;-139.81
8533;BMP280;4304;53.876;10.662;2022-10-31T04:26:57;116254.75;;;-139.81
8533;BMP280;4304;53.876;10.662;2022-10-31T04:29:22;116254.75;;;-139.81
8533;BMP280;4304;53.876;10.662;2022-10-31T04:31:48;116254.75;;;-139.81
8533;BMP280;4304;53.876;10.662;2022-10-31T04:34:13;116254.75;;;-139.81
8533;BMP280;4304;53.876;10.662;2022-10-31T04:36:38;116254.75;;;-139.81
8533;BMP280;4304;53.876;10.662;2022-10-31T04:39:03;116254.75;;;-139.81
8533;BMP280;4304;53.876;10.662;2022-10-31T04:41:29;116254.75;;;-139.81
8533;BMP280;4304;53.876;10.662;2022-10-31T04:43:54;116254.75;;;-139.81
8533;BMP280;4304;53.876;10.662;2022-10-31T04:46:19;116254.75;;;-139.81
8533;BMP280;4304;53.876;10.662;2022-10-31T04:48:45;116254.75;;;-139.81
8533;BMP280;4304;53.876;10.662;2022-10-31T04:51:11;116254.75;;;-139.81
8533;BMP280;4304;53.876;10.662;2022-10-31T04:53:36;116254.75;;;-139.81
8533;BMP280;4304;53.876;10.662;2022-10-31T04:56:01;116254.75;;;-139.81
8533;BMP280;4304;53.876;10.662;2022-10-31T04:58:27;116254.75;;;-139.81
8533;BMP280;4304;53.876;10.662;2022-10-31T05:00:55;116254.75;;;-139.81
8533;BMP280;4304;53.876;10.662;2022-10-31T05:03:21;116254.75;;;-139.81
8533;BMP280;4304;53.876;10.662;2022-10-31T05:05:46;116254.75;;;-139.81
8533;BMP280;4304;53.876;10.662;2022-10-31T05:08:11;116254.75;;;-139.81
8533;BMP280;4304;53.876;10.662;2022-10-31T05:10:36;116254.75;;;-139.81
8533;BMP280;4304;53.876;10.662;2022-10-31T05:13:02;116254.75;;;-139.81
8533;BMP280;4304;53.876;10.662;2022-10-31T05:15:28;116254.75;;;-139.81
8533;BMP280;4304;53.876;10.662;2022-10-31T05:17:54;116254.75;;;-139.81
8533;BMP280;4304;53.876;10.662;2022-10-31T05:20:23;116254.75;;;-139.81
8533;BMP280;4304;53.876;10.662;2022-10-31T05:22:50;116254.75;;;-139.81
8533;BMP280;4304;53.876;10.662;2022-10-31T05:25:17;116254.75;;;-139.81
8533;BMP280;4304;53.876;10.662;2022-10-31T05:27:46;116254.75;;;-139.81
8533;BMP280;4304;53.876;10.662;2022-10-31T05:30:14;116254.75;;;-139.81
8533;BMP280;4304;53.876;10.662;2022-10-31T05:32:43;116254.75;;;-139.81
8533;BMP280;4304;53.876;10.662;2022-10-31T05:35:29;116254.75;;;-139.81
8533;BMP280;4304;53.876;10.662;2022-10-31T05:37:55;116254.75;;;-139.81
8533;BMP280;4304;53.876;10.662;2022-10-31T05:40:21;116254.75;;;-139.81
8533;BMP280;4304;53.876;10.662;2022-10-31T05:42:47;116254.75;;;-139.81
8533;BMP280;4304;53.876;10.662;2022-10-31T05:45:16;116254.75;;;-139.81
8533;BMP280;4304;53.876;10.662;2022-10-31T05:47:41;116254.75;;;-139.81
8533;BMP280;4304;53.876;10.662;2022-10-31T05:50:08;116254.75;;;-139.81
8533;BMP280;4304;53.876;10.662;2022-10-31T05:52:34;116254.75;;;-139.81
8533;BMP280;4304;53.876;10.662;2022-10-31T05:54:59;116254.75;;;-139.81
8533;BMP280;4304;53.876;10.662;2022-10-31T05:57:24;116254.75;;;-139.81
8533;BMP280;4304;53.876;10.662;2022-10-31T05:59:49;116254.75;;;-139.81
8533;BMP280;4304;53.876;10.662;2022-10-31T06:02:15;116254.75;;;-139.81
8533;BMP280;4304;53.876;10.662;2022-10-31T06:04:40;116254.75;;;-139.81
8533;BMP280;4304;53.876;10.662;2022-10-31T06:07:05;116254.75;;;-139.81
8533;BMP280;4304;53.876;10.662;2022-10-31T06:09:30;116254.75;;;-139.81
8533;BMP280;4304;53.876;10.662;2022-10-31T06:11:55;116254.75;;;-139.81
8533;BMP280;4304;53.876;10.662;2022-10-31T06:14:21;116254.75;;;-139.81
8533;BMP280;4304;53.876;10.662;2022-10-31T06:16:46;116254.75;;;-139.81
8533;BMP280;4304;53.876;10.662;2022-10-31T06:19:11;116254.75;;;-139.81
8533;BMP280;4304;53.876;10.662;2022-10-31T06:21:36;116254.75;;;-139.81
8533;BMP280;4304;53.876;10.662;2022-10-31T06:24:02;116254.75;;;-139.81
8533;BMP280;4304;53.876;10.662;2022-10-31T06:26:27;116254.75;;;-139.81
8533;BMP280;4304;53.876;10.662;2022-10-31T06:28:52;116254.75;;;-139.81
8533;BMP280;4304;53.876;10.662;2022-10-31T06:31:18;116254.75;;;-139.81
8533;BMP280;4304;53.876;10.662;2022-10-31T06:33:43;116254.75;;;-139.81
8533;BMP280;4304;53.876;10.662;2022-10-31T06:36:09;116254.75;;;-139.81
8533;BMP280;4304;53.876;10.662;2022-10-31T06:38:34;116254.75;;;-139.81
8533;BMP280;4304;53.876;10.662;2022-10-31T06:41:05;116254.75;;;-139.81
8533;BMP280;4304;53.876;10.662;2022-10-31T06:43:31;116254.75;;;-139.81
8533;BMP280;4304;53.876;10.662;2022-10-31T06:45:57;116254.75;;;-139.81
8533;BMP280;4304;53.876;10.662;2022-10-31T06:48:22;116254.75;;;-139.81
8533;BMP280;4304;53.876;10.662;2022-10-31T06:50:48;116254.75;;;-139.81
8533;BMP280;4304;53.876;10.662;2022-10-31T06:53:14;116254.75;;;-139.81
8533;BMP280;4304;53.876;10.662;2022-10-31T06:55:40;116254.75;;;-139.81
8533;BMP280;4304;53.876;10.662;2022-10-31T06:58:06;116254.75;;;-139.81
8533;BMP280;4304;53.876;10.662;2022-10-31T07:00:32;116254.75;;;-139.81
8533;BMP280;4304;53.876;10.662;2022-10-31T07:02:59;116254.75;;;-139.81
8533;BMP280;4304;53.876;10.662;2022-10-31T07:05:25;116254.75;;;-139.81
8533;BMP280;4304;53.876;10.662;2022-10-31T07:07:55;116254.75;;;-139.81
8533;BMP280;4304;53.876;10.662;2022-10-31T07:10:21;116254.75;;;-139.81
8533;BMP280;4304;53.876;10.662;2022-10-31T07:12:46;116254.75;;;-139.81
8533;BMP280;4304;53.876;10.662;2022-10-31T07:15:12;116254.75;;;-139.81
8533;BMP280;4304;53.876;10.662;2022-10-31T07:17:37;116254.75;;;-139.81
8533;BMP280;4304;53.876;10.662;2022-10-31T07:20:02;116254.75;;;-139.81
8533;BMP280;4304;53.876;10.662;2022-10-31T07:22:35;116254.75;;;-139.81
8533;BMP280;4304;53.876;10.662;2022-10-31T07:25:01;116254.75;;;-139.81
8533;BMP280;4304;53.876;10.662;2022-10-31T07:27:26;116254.75;;;-139.81
8533;BMP280;4304;53.876;10.662;2022-10-31T07:29:52;116254.75;;;-139.81
8533;BMP280;4304;53.876;10.662;2022-10-31T07:32:17;116254.75;;;-139.81
8533;BMP280;4304;53.876;10.662;2022-10-31T07:34:42;116254.75;;;-139.81
8533;BMP280;4304;53.876;10.662;2022-10-31T07:37:07;116254.75;;;-139.81
8533;BMP280;4304;53.876;10.662;2022-10-31T07:39:33;116254.75;;;-139.81
8533;BMP280;4304;53.876;10.662;2022-10-31T07:41:58;116254.75;;;-139.81
8533;BMP280;4304;53.876;10.662;2022-10-31T07:44:24;116254.75;;;-139.81
8533;BMP280;4304;53.876;10.662;2022-10-31T07:46:49;116514.44;;;-139.81
8533;BMP280;4304;53.876;10.662;2022-10-31T07:49:15;116514.44;;;-139.81
8533;BMP280;4304;53.876;10.662;2022-10-31T07:51:40;116514.44;;;-139.81
8533;BMP280;4304;53.876;10.662;2022-10-31T07:54:06;116514.44;;;-139.81
8533;BMP280;4304;53.876;10.662;2022-10-31T07:56:32;116254.75;;;-139.81
8533;BMP280;4304;53.876;10.662;2022-10-31T07:58:57;116254.75;;;-139.81
8533;BMP280;4304;53.876;10.662;2022-10-31T08:01:22;116254.75;;;-139.81
8533;BMP280;4304;53.876;10.662;2022-10-31T08:03:48;116254.75;;;-139.81
8533;BMP280;4304;53.876;10.662;2022-10-31T08:06:13;116254.75;;;-139.81
8533;BMP280;4304;53.876;10.662;2022-10-31T08:08:38;116254.75;;;-139.81
8533;BMP280;4304;53.876;10.662;2022-10-31T08:11:04;116514.44;;;-139.81
8533;BMP280;4304;53.876;10.662;2022-10-31T08:13:30;116514.44;;;-139.81
8533;BMP280;4304;53.876;10.662;2022-10-31T08:15:57;116514.44;;;-139.81
8533;BMP280;4304;53.876;10.662;2022-10-31T08:18:22;116254.75;;;-139.81
8533;BMP280;4304;53.876;10.662;2022-10-31T08:20:48;116514.44;;;-139.81
8533;BMP280;4304;53.876;10.662;2022-10-31T08:23:13;116514.44;;;-139.81
8533;BMP280;4304;53.876;10.662;2022-10-31T08:25:39;116514.44;;;-139.81
8533;BMP280;4304;53.876;10.662;2022-10-31T08:28:06;116254.75;;;-139.81
8533;BMP280;4304;53.876;10.662;2022-10-31T08:30:32;116514.44;;;-139.81
8533;BMP280;4304;53.876;10.662;2022-10-31T08:35:31;116514.44;;;-139.81
8533;BMP280;4304;53.876;10.662;2022-10-31T08:37:58;116514.44;;;-139.81
8533;BMP280;4304;53.876;10.662;2022-10-31T08:40:24;116514.44;;;-139.81
8533;BMP280;4304;53.876;10.662;2022-10-31T08:42:57;116514.44;;;-139.81
8533;BMP280;4304;53.876;10.662;2022-10-31T08:45:24;116514.44;;;-139.81
8533;BMP280;4304;53.876;10.662;2022-10-31T08:47:49;116514.44;;;-139.81
8533;BMP280;4304;53.876;10.662;2022-10-31T08:50:20;116514.44;;;-139.81
8533;BMP280;4304;53.876;10.662;2022-10-31T08:52:46;116514.44;;;-139.81
8533;BMP280;4304;53.876;10.662;2022-10-31T08:55:12;116514.44;;;-139.81
8533;BMP280;4304;53.876;10.662;2022-10-31T08:57:38;116514.44;;;-139.81
8533;BMP280;4304;53.876;10.662;2022-10-31T09:00:03;116514.44;;;-139.81
8533;BMP280;4304;53.876;10.662;2022-10-31T09:02:29;116514.44;;;-139.81
8533;BMP280;4304;53.876;10.662;2022-10-31T09:04:54;116514.44;;;-139.81
8533;BMP280;4304;53.876;10.662;2022-10-31T09:07:20;116514.44;;;-139.81
8533;BMP280;4304;53.876;10.662;2022-10-31T09:09:45;116514.44;;;-139.81
8533;BMP280;4304;53.876;10.662;2022-10-31T09:12:10;116514.44;;;-139.81
8533;BMP280;4304;53.876;10.662;2022-10-31T09:14:35;116514.44;;;-139.81
8533;BMP280;4304;53.876;10.662;2022-10-31T09:17:00;116514.44;;;-139.81
8533;BMP280;4304;53.876;10.662;2022-10-31T09:19:26;116514.44;;;-139.81
8533;BMP280;4304;53.876;10.662;2022-10-31T09:21:52;116514.44;;;-139.81
8533;BMP280;4304;53.876;10.662;2022-10-31T09:24:18;116514.44;;;-139.81
8533;BMP280;4304;53.876;10.662;2022-10-31T09:26:43;116514.44;;;-139.81
8533;BMP280;4304;53.876;10.662;2022-10-31T09:29:08;116514.44;;;-139.81
8533;BMP280;4304;53.876;10.662;2022-10-31T09:31:33;116514.44;;;-139.81
8533;BMP280;4304;53.876;10.662;2022-10-31T09:33:59;116514.44;;;-139.81
8533;BMP280;4304;53.876;10.662;2022-10-31T09:36:24;116514.44;;;-139.81
8533;BMP280;4304;53.876;10.662;2022-10-31T09:38:53;116514.44;;;-139.81
8533;BMP280;4304;53.876;10.662;2022-10-31T09:41:31;116514.44;;;-139.81
8533;BMP280;4304;53.876;10.662;2022-10-31T09:51:55;116514.44;;;-139.81
8533;BMP280;4304;53.876;10.662;2022-10-31T09:54:40;116514.44;;;-139.81
8533;BMP280;4304;53.876;10.662;2022-10-31T09:57:13;116514.44;;;-139.81
8533;BMP280;4304;53.876;10.662;2022-10-31T09:59:41;116514.44;;;-139.81
8533;BMP280;4304;53.876;10.662;2022-10-31T10:02:30;116774.16;;;-139.81
8533;BMP280;4304;53.876;10.662;2022-10-31T10:04:59;116514.44;;;-139.81
8533;BMP280;4304;53.876;10.662;2022-10-31T10:09:54;116514.44;;;-139.81
8533;BMP280;4304;53.876;10.662;2022-10-31T10:12:33;116514.44;;;-139.81
8533;BMP280;4304;53.876;10.662;2022-10-31T10:15:24;116514.44;;;-139.81
8533;BMP280;4304;53.876;10.662;2022-10-31T10:21:24;116774.16;;;-139.81
8533;BMP280;4304;53.876;10.662;2022-10-31T10:26:37;116774.16;;;-139.81
8533;BMP280;4304;53.876;10.662;2022-10-31T10:29:17;116514.44;;;-139.81
8533;BMP280;4304;53.876;10.662;2022-10-31T10:31:48;116514.44;;;-139.81
8533;BMP280;4304;53.876;10.662;2022-10-31T10:34:22;116514.44;;;-139.81
8533;BMP280;4304;53.876;10.662;2022-10-31T10:36:52;116774.16;;;-139.81
8533;BMP280;4304;53.876;10.662;2022-10-31T10:39:23;116774.16;;;-139.81
8533;BMP280;4304;53.876;10.662;2022-10-31T10:41:51;116774.16;;;-139.81
8533;BMP280;4304;53.876;10.662;2022-10-31T10:44:16;116774.16;;;-139.81
8533;BMP280;4304;53.876;10.662;2022-10-31T10:46:55;116774.16;;;-139.81
8533;BMP280;4304;53.876;10.662;2022-10-31T10:57:36;116774.16;;;-139.81
8533;BMP280;4304;53.876;10.662;2022-10-31T11:00:17;116774.16;;;-139.81
8533;BMP280;4304;53.876;10.662;2022-10-31T11:02:43;116774.16;;;-139.81
8533;BMP280;4304;53.876;10.662;2022-10-31T11:05:44;116774.16;;;-139.81
8533;BMP280;4304;53.876;10.662;2022-10-31T11:08:33;116774.16;;;-139.81
8533;BMP280;4304;53.876;10.662;2022-10-31T11:13:30;116774.16;;;-139.81
8533;BMP280;4304;53.876;10.662;2022-10-31T11:16:07;116774.16;;;-139.81
8533;BMP280;4304;53.876;10.662;2022-10-31T11:18:42;116774.16;;;-139.81
8533;BMP280;4304;53.876;10.662;2022-10-31T11:21:21;116774.16;;;-139.81
8533;BMP280;4304;53.876;10.662;2022-10-31T11:23:48;116774.16;;;-139.81
8533;BMP280;4304;53.876;10.662;2022-10-31T11:26:19;116774.16;;;-139.81
8533;BMP280;4304;53.876;10.662;2022-10-31T11:28:56;116774.16;;;-139.81
8533;BMP280;4304;53.876;10.662;2022-10-31T11:31:21;116774.16;;;-139.81
8533;BMP280;4304;53.876;10.662;2022-10-31T11:33:49;116774.16;;;-139.81
8533;BMP280;4304;53.876;10.662;2022-10-31T11:36:27;116774.16;;;-139.81
8533;BMP280;4304;53.876;10.662;2022-10-31T11:38:53;116774.16;;;-139.81
8533;BMP280;4304;53.876;10.662;2022-10-31T11:41:32;116774.16;;;-139.81
8533;BMP280;4304;53.876;10.662;2022-10-31T11:44:13;116774.16;;;-139.81
8533;BMP280;4304;53.876;10.662;2022-10-31T11:46:55;116774.16;;;-139.81
8533;BMP280;4304;53.876;10.662;2022-10-31T11:49:33;116774.16;;;-139.81
8533;BMP280;4304;53.876;10.662;2022-10-31T11:52:15;116774.16;;;-139.81
8533;BMP280;4304;53.876;10.662;2022-10-31T11:54:46;116774.16;;;-139.81
8533;BMP280;4304;53.876;10.662;2022-10-31T11:57:25;116774.16;;;-139.81
8533;BMP280;4304;53.876;10.662;2022-10-31T11:59:53;116774.16;;;-139.81
8533;BMP280;4304;53.876;10.662;2022-10-31T12:02:19;116774.16;;;-139.81
8533;BMP280;4304;53.876;10.662;2022-10-31T12:04:54;116774.16;;;-139.81
8533;BMP280;4304;53.876;10.662;2022-10-31T12:07:22;116774.16;;;-139.81
8533;BMP280;4304;53.876;10.662;2022-10-31T12:09:47;116774.16;;;-139.81
8533;BMP280;4304;53.876;10.662;2022-10-31T12:12:37;116774.16;;;-139.81
8533;BMP280;4304;53.876;10.662;2022-10-31T12:18:00;116774.16;;;-139.81
8533;BMP280;4304;53.876;10.662;2022-10-31T12:20:53;116774.16;;;-139.81
8533;BMP280;4304;53.876;10.662;2022-10-31T12:23:29;116774.16;;;-139.81
8533;BMP280;4304;53.876;10.662;2022-10-31T12:26:23;116774.16;;;-139.81
8533;BMP280;4304;53.876;10.662;2022-10-31T12:40:27;116774.16;;;-139.81
8533;BMP280;4304;53.876;10.662;2022-10-31T12:43:07;116774.16;;;-139.81
8533;BMP280;4304;53.876;10.662;2022-10-31T12:58:55;116774.16;;;-139.81
8533;BMP280;4304;53.876;10.662;2022-10-31T13:01:27;116774.16;;;-139.81
8533;BMP280;4304;53.876;10.662;2022-10-31T13:04:11;116774.16;;;-139.81
8533;BMP280;4304;53.876;10.662;2022-10-31T13:06:43;116774.16;;;-139.81
8533;BMP280;4304;53.876;10.662;2022-10-31T13:09:25;116774.16;;;-139.81
8533;BMP280;4304;53.876;10.662;2022-10-31T13:11:56;116774.16;;;-139.81
8533;BMP280;4304;53.876;10.662;2022-10-31T13:17:04;116774.16;;;-139.81
8533;BMP280;4304;53.876;10.662;2022-10-31T13:19:41;116774.16;;;-139.81
8533;BMP280;4304;53.876;10.662;2022-10-31T13:22:24;116774.16;;;-139.81
8533;BMP280;4304;53.876;10.662;2022-10-31T13:27:54;116774.16;;;-139.81
8533;BMP280;4304;53.876;10.662;2022-10-31T13:30:22;116774.16;;;-139.81
8533;BMP280;4304;53.876;10.662;2022-10-31T13:32:59;116774.16;;;-139.81
8533;BMP280;4304;53.876;10.662;2022-10-31T13:35:40;116774.16;;;-139.81
8533;BMP280;4304;53.876;10.662;2022-10-31T13:41:11;116774.16;;;-139.81
8533;BMP280;4304;53.876;10.662;2022-10-31T13:46:23;116774.16;;;-139.81
8533;BMP280;4304;53.876;10.662;2022-10-31T13:48:48;116774.16;;;-139.81
8533;BMP280;4304;53.876;10.662;2022-10-31T13:51:24;116774.16;;;-139.81
8533;BMP280;4304;53.876;10.662;2022-10-31T13:56:34;116774.16;;;-139.81
8533;BMP280;4304;53.876;10.662;2022-10-31T14:01:34;116774.16;;;-139.81
8533;BMP280;4304;53.876;10.662;2022-10-31T14:04:14;116774.16;;;-139.81
8533;BMP280;4304;53.876;10.662;2022-10-31T14:06:45;116774.16;;;-139.81
8533;BMP280;4304;53.876;10.662;2022-10-31T14:09:20;116774.16;;;-139.81
8533;BMP280;4304;53.876;10.662;2022-10-31T14:11:47;116774.16;;;-139.81
8533;BMP280;4304;53.876;10.662;2022-10-31T14:14:13;116774.16;;;-139.81
8533;BMP280;4304;53.876;10.662;2022-10-31T14:16:40;116514.44;;;-139.81
8533;BMP280;4304;53.876;10.662;2022-10-31T14:19:16;116774.16;;;-139.81
8533;BMP280;4304;53.876;10.662;2022-10-31T14:21:47;116514.44;;;-139.81
8533;BMP280;4304;53.876;10.662;2022-10-31T14:24:31;116514.44;;;-139.81
8533;BMP280;4304;53.876;10.662;2022-10-31T14:27:05;116514.44;;;-139.81
8533;BMP280;4304;53.876;10.662;2022-10-31T14:29:48;116514.44;;;-139.81
8533;BMP280;4304;53.876;10.662;2022-10-31T14:32:21;116514.44;;;-139.81
8533;BMP280;4304;53.876;10.662;2022-10-31T14:37:54;116514.44;;;-139.81
8533;BMP280;4304;53.876;10.662;2022-10-31T14:44:03;116514.44;;;-139.81
8533;BMP280;4304;53.876;10.662;2022-10-31T14:46:33;116514.44;;;-139.81
8533;BMP280;4304;53.876;10.662;2022-10-31T14:51:41;116514.44;;;-139.81
8533;BMP280;4304;53.876;10.662;2022-10-31T14:54:30;116514.44;;;-139.81
8533;BMP280;4304;53.876;10.662;2022-10-31T14:57:03;116254.75;;;-139.81
8533;BMP280;4304;53.876;10.662;2022-10-31T14:59:31;116254.75;;;-139.81
8533;BMP280;4304;53.876;10.662;2022-10-31T15:02:29;116254.75;;;-139.81
8533;BMP280;4304;53.876;10.662;2022-10-31T15:04:55;116254.75;;;-139.81
8533;BMP280;4304;53.876;10.662;2022-10-31T15:07:25;116254.75;;;-139.81
8533;BMP280;4304;53.876;10.662;2022-10-31T15:10:19;116254.75;;;-139.81
8533;BMP280;4304;53.876;10.662;2022-10-31T15:12:45;116254.75;;;-139.81
8533;BMP280;4304;53.876;10.662;2022-10-31T15:15:17;116254.75;;;-139.81
8533;BMP280;4304;53.876;10.662;2022-10-31T15:17:54;116254.75;;;-139.81
8533;BMP280;4304;53.876;10.662;2022-10-31T15:20:22;116254.75;;;-139.81
8533;BMP280;4304;53.876;10.662;2022-10-31T15:22:47;116254.75;;;-139.81
8533;BMP280;4304;53.876;10.662;2022-10-31T15:25:18;116254.75;;;-139.81
8533;BMP280;4304;53.876;10.662;2022-10-31T15:27:44;116254.75;;;-139.81
8533;BMP280;4304;53.876;10.662;2022-10-31T15:32:44;116254.75;;;-139.81
8533;BMP280;4304;53.876;10.662;2022-10-31T15:35:10;115995.09;;;-139.81
8533;BMP280;4304;53.876;10.662;2022-10-31T15:37:43;116254.75;;;-139.81
8533;BMP280;4304;53.876;10.662;2022-10-31T15:40:20;115995.09;;;-139.81
8533;BMP280;4304;53.876;10.662;2022-10-31T15:43:05;116254.75;;;-139.81